createdAt,value
2023-03-22T00:00:13.704Z,20.73
2023-03-22T00:02:40.307Z,20.74
2023-03-22T00:05:07.015Z,20.74
2023-03-22T00:07:33.414Z,20.74
2023-03-22T00:09:59.790Z,20.75
2023-03-22T00:12:26.264Z,20.75
2023-03-22T00:14:53.638Z,20.75
2023-03-22T00:17:20.058Z,20.76
2023-03-22T00:19:47.429Z,20.75
2023-03-22T00:22:14.788Z,20.76
2023-03-22T00:24:41.230Z,20.75
2023-03-22T00:27:07.734Z,20.75
2023-03-22T00:29:34.170Z,20.74
2023-03-22T00:32:00.751Z,20.71
2023-03-22T00:34:32.355Z,20.69
2023-03-22T00:36:58.824Z,20.68
2023-03-22T00:39:26.987Z,20.67
2023-03-22T00:41:53.497Z,20.65
2023-03-22T00:44:20.006Z,20.64
2023-03-22T00:46:46.352Z,20.62
2023-03-22T00:49:12.829Z,20.62
2023-03-22T00:51:39.233Z,20.60
2023-03-22T00:54:05.713Z,20.60
2023-03-22T00:56:33.941Z,20.60
2023-03-22T00:59:00.332Z,20.58
2023-03-22T01:01:26.730Z,20.58
2023-03-22T01:03:53.271Z,20.57
2023-03-22T01:06:19.778Z,20.56
2023-03-22T01:08:46.179Z,20.56
2023-03-22T01:11:12.966Z,20.56
2023-03-22T01:13:41.624Z,20.56
2023-03-22T01:16:08.207Z,20.54
2023-03-22T01:18:35.239Z,20.54
2023-03-22T01:21:02.200Z,20.54
2023-03-22T01:23:28.632Z,20.54
2023-03-22T01:25:55.054Z,20.53
2023-03-22T01:28:21.497Z,20.52
2023-03-22T01:30:47.918Z,20.52
2023-03-22T01:33:14.316Z,20.50
2023-03-22T01:35:40.892Z,20.50
2023-03-22T01:38:07.365Z,20.51
2023-03-22T01:40:33.838Z,20.51
2023-03-22T01:43:00.441Z,20.52
2023-03-22T01:45:26.755Z,20.50
2023-03-22T01:47:58.349Z,20.50
2023-03-22T01:50:25.861Z,20.51
2023-03-22T01:52:53.153Z,20.51
2023-03-22T01:55:22.804Z,20.51
2023-03-22T01:57:50.824Z,20.51
2023-03-22T02:00:18.910Z,20.50
2023-03-22T02:02:48.178Z,20.51
2023-03-22T02:05:15.111Z,20.51
2023-03-22T02:07:42.535Z,20.51
2023-03-22T02:10:28.029Z,20.51
2023-03-22T02:12:57.175Z,20.51
2023-03-22T02:15:42.803Z,20.50
2023-03-22T02:18:24.648Z,20.51
2023-03-22T02:21:09.929Z,20.49
2023-03-22T02:23:45.753Z,20.46
2023-03-22T02:26:21.420Z,20.47
2023-03-22T02:28:53.939Z,20.49
2023-03-22T02:31:23.327Z,20.49
2023-03-22T02:33:58.956Z,20.49
2023-03-22T02:36:31.671Z,20.47
2023-03-22T02:38:58.097Z,20.46
2023-03-22T02:41:33.599Z,20.44
2023-03-22T02:44:09.091Z,20.45
2023-03-22T02:46:41.854Z,20.45
2023-03-22T02:49:11.177Z,20.46
2023-03-22T02:51:58.406Z,20.45
2023-03-22T02:54:39.460Z,20.45
2023-03-22T02:57:10.010Z,20.44
2023-03-22T02:59:38.412Z,20.45
2023-03-22T03:02:05.748Z,20.44
2023-03-22T03:04:35.382Z,20.45
2023-03-22T03:07:04.353Z,20.43
2023-03-22T03:09:31.774Z,20.43
2023-03-22T03:11:58.130Z,20.43
2023-03-22T03:14:28.671Z,20.43
2023-03-22T03:17:07.309Z,20.42
2023-03-22T03:19:42.911Z,20.42
2023-03-22T03:22:12.334Z,20.41
2023-03-22T03:24:48.163Z,20.42
2023-03-22T03:27:17.657Z,20.41
2023-03-22T03:29:50.420Z,20.40
2023-03-22T03:32:19.571Z,20.40
2023-03-22T03:35:01.752Z,20.39
2023-03-22T03:37:34.482Z,20.39
2023-03-22T03:40:10.907Z,20.39
2023-03-22T03:42:38.877Z,20.39
2023-03-22T03:45:06.595Z,20.39
2023-03-22T03:47:34.365Z,20.39
2023-03-22T03:50:00.824Z,20.39
2023-03-22T03:52:27.264Z,20.39
2023-03-22T03:54:55.145Z,20.39
2023-03-22T03:57:22.151Z,20.39
2023-03-22T03:59:48.626Z,20.39
2023-03-22T04:02:16.743Z,20.38
2023-03-22T04:04:43.256Z,20.39
2023-03-22T04:07:09.732Z,20.38
2023-03-22T04:09:37.300Z,20.39
2023-03-22T04:12:03.845Z,20.38
2023-03-22T04:14:30.768Z,20.39
2023-03-22T04:16:57.293Z,20.38
2023-03-22T04:19:23.725Z,20.37
2023-03-22T04:21:53.097Z,20.37
2023-03-22T04:24:21.223Z,20.38
2023-03-22T04:26:47.782Z,20.38
2023-03-22T04:29:14.485Z,20.38
2023-03-22T04:31:40.956Z,20.37
2023-03-22T04:34:07.417Z,20.37
2023-03-22T04:36:39.329Z,20.38
2023-03-22T04:39:07.216Z,20.40
2023-03-22T04:41:34.433Z,20.40
2023-03-22T04:44:03.338Z,20.41
2023-03-22T04:46:33.696Z,20.43
2023-03-22T04:49:00.398Z,20.42
2023-03-22T04:51:27.361Z,20.44
2023-03-22T04:53:54.368Z,20.43
2023-03-22T04:56:20.941Z,20.43
2023-03-22T04:58:48.024Z,20.44
2023-03-22T05:01:15.420Z,20.44
2023-03-22T05:03:43.144Z,20.44
2023-03-22T05:06:10.353Z,20.41
2023-03-22T05:08:37.264Z,20.42
2023-03-22T05:11:08.547Z,20.41
2023-03-22T05:13:34.938Z,20.42
2023-03-22T05:16:01.388Z,20.41
2023-03-22T05:18:27.863Z,20.43
2023-03-22T05:20:57.343Z,20.41
2023-03-22T05:23:24.157Z,20.40
2023-03-22T05:25:52.102Z,20.40
2023-03-22T05:28:21.244Z,20.39
2023-03-22T05:30:48.484Z,20.40
2023-03-22T05:33:16.826Z,20.39
2023-03-22T05:35:43.334Z,20.40
2023-03-22T05:38:10.298Z,20.39
2023-03-22T05:40:36.771Z,20.39
2023-03-22T05:43:03.246Z,20.39
2023-03-22T05:45:29.813Z,20.38
2023-03-22T05:47:56.267Z,20.40
2023-03-22T05:50:23.338Z,20.40
2023-03-22T05:52:50.363Z,20.39
2023-03-22T05:55:19.687Z,20.40
2023-03-22T05:57:46.772Z,20.40
2023-03-22T06:00:16.377Z,20.42
2023-03-22T06:02:43.734Z,20.41
2023-03-22T06:05:13.385Z,20.42
2023-03-22T06:07:40.220Z,20.44
2023-03-22T06:10:07.459Z,20.43
2023-03-22T06:12:34.448Z,20.42
2023-03-22T06:15:03.601Z,20.42
2023-03-22T06:17:30.666Z,20.40
2023-03-22T06:19:57.167Z,20.40
2023-03-22T06:22:23.581Z,20.39
2023-03-22T06:24:50.923Z,20.39
2023-03-22T06:27:17.965Z,20.38
2023-03-22T06:29:49.731Z,20.38
2023-03-22T06:32:17.136Z,20.38
2023-03-22T06:34:43.984Z,20.36
2023-03-22T06:37:10.834Z,20.36
2023-03-22T06:39:37.360Z,20.35
2023-03-22T06:42:03.849Z,20.34
2023-03-22T06:44:30.298Z,20.34
2023-03-22T06:46:56.707Z,20.35
2023-03-22T06:49:24.101Z,20.34
2023-03-22T06:51:50.559Z,20.35
2023-03-22T06:54:17.038Z,20.36
2023-03-22T06:56:43.497Z,20.35
2023-03-22T06:59:09.909Z,20.35
2023-03-22T07:01:36.419Z,20.36
2023-03-22T07:04:02.918Z,20.38
2023-03-22T07:06:30.558Z,20.40
2023-03-22T07:08:57.037Z,20.41
2023-03-22T07:11:23.534Z,20.42
2023-03-22T07:13:50.004Z,20.43
2023-03-22T07:16:18.145Z,20.43
2023-03-22T07:18:46.522Z,20.46
2023-03-22T07:21:12.911Z,20.46
2023-03-22T07:23:39.299Z,20.47
2023-03-22T07:26:06.022Z,20.47
2023-03-22T07:28:32.536Z,20.47
2023-03-22T07:31:07.228Z,20.47
2023-03-22T07:33:33.725Z,20.47
2023-03-22T07:36:00.506Z,20.47
2023-03-22T07:38:27.072Z,20.47
2023-03-22T07:40:56.570Z,20.46
2023-03-22T07:43:23.070Z,20.45
2023-03-22T07:45:50.541Z,20.42
2023-03-22T07:48:17.393Z,20.42
2023-03-22T07:50:44.030Z,20.40
2023-03-22T07:53:10.510Z,20.39
2023-03-22T07:55:37.440Z,20.38
2023-03-22T07:58:04.439Z,20.37
2023-03-22T08:00:31.293Z,20.34
2023-03-22T08:02:57.909Z,20.33
2023-03-22T08:05:25.011Z,20.32
2023-03-22T08:07:52.506Z,20.31
2023-03-22T08:10:19.435Z,20.30
2023-03-22T08:12:46.179Z,20.30
2023-03-22T08:15:12.906Z,20.29
2023-03-22T08:17:39.294Z,20.29
2023-03-22T08:20:09.126Z,20.29
2023-03-22T08:22:36.534Z,20.29
2023-03-22T08:25:03.996Z,20.30
2023-03-22T08:27:31.395Z,20.30
2023-03-22T08:29:58.532Z,20.30
2023-03-22T08:32:25.225Z,20.29
2023-03-22T08:34:52.738Z,20.30
2023-03-22T08:37:22.395Z,20.30
2023-03-22T08:39:48.932Z,20.31
2023-03-22T08:42:15.502Z,20.30
2023-03-22T08:44:41.890Z,20.30
2023-03-22T08:47:08.388Z,20.31
2023-03-22T08:49:34.869Z,20.30
2023-03-22T08:52:01.385Z,20.31
2023-03-22T08:54:33.591Z,20.32
2023-03-22T08:57:00.647Z,20.32
2023-03-22T08:59:27.402Z,20.34
2023-03-22T09:01:53.907Z,20.36
2023-03-22T09:04:20.575Z,20.36
2023-03-22T09:06:47.077Z,20.36
2023-03-22T09:09:13.755Z,20.38
2023-03-22T09:11:42.538Z,20.43
2023-03-22T09:14:09.413Z,20.45
2023-03-22T09:16:36.020Z,20.47
2023-03-22T09:19:02.494Z,20.50
2023-03-22T09:21:31.819Z,20.53
2023-03-22T09:23:58.218Z,20.55
2023-03-22T09:26:25.701Z,20.57
2023-03-22T09:28:52.308Z,20.58
2023-03-22T09:31:20.586Z,20.61
2023-03-22T09:33:47.558Z,20.61
2023-03-22T09:36:14.011Z,20.62
2023-03-22T09:38:41.359Z,20.63
2023-03-22T09:41:14.131Z,20.63
2023-03-22T09:43:43.678Z,20.64
2023-03-22T09:46:14.980Z,20.64
2023-03-22T09:48:42.226Z,20.64
2023-03-22T09:51:17.454Z,20.63
2023-03-22T09:53:43.863Z,20.64
2023-03-22T09:56:14.279Z,20.66
2023-03-22T09:58:51.122Z,20.66
2023-03-22T10:01:21.123Z,20.65
2023-03-22T10:03:50.565Z,20.67
2023-03-22T10:06:24.440Z,20.66
2023-03-22T10:09:13.991Z,20.66
2023-03-22T10:11:41.201Z,20.66
2023-03-22T10:14:16.901Z,20.66
2023-03-22T10:16:44.737Z,20.66
2023-03-22T10:19:21.973Z,20.66
2023-03-22T10:21:50.471Z,20.69
2023-03-22T10:24:20.008Z,20.71
2023-03-22T10:26:47.750Z,20.72
2023-03-22T10:29:14.163Z,20.73
2023-03-22T10:31:43.431Z,20.77
2023-03-22T10:34:20.131Z,20.78
2023-03-22T10:36:47.855Z,20.78
2023-03-22T10:39:22.025Z,20.80
2023-03-22T10:41:49.470Z,20.79
2023-03-22T10:44:18.038Z,20.79
2023-03-22T10:46:45.487Z,20.79
2023-03-22T10:49:16.838Z,20.77
2023-03-22T10:51:47.831Z,20.77
2023-03-22T10:54:15.499Z,20.77
2023-03-22T10:56:42.579Z,20.76
2023-03-22T10:59:29.884Z,20.76
2023-03-22T11:01:56.517Z,20.74
2023-03-22T11:04:23.097Z,20.74
2023-03-22T11:06:52.756Z,20.74
2023-03-22T11:09:22.358Z,20.73
2023-03-22T11:11:56.123Z,20.72
2023-03-22T11:14:25.765Z,20.71
2023-03-22T11:16:57.881Z,20.71
2023-03-22T11:19:28.594Z,20.70
2023-03-22T11:21:55.672Z,20.69
2023-03-22T11:24:24.922Z,20.69
2023-03-22T11:27:06.810Z,20.68
2023-03-22T11:29:40.632Z,20.68
2023-03-22T11:32:20.262Z,20.68
2023-03-22T11:34:47.403Z,20.68
2023-03-22T11:37:18.167Z,20.68
2023-03-22T11:39:50.617Z,20.69
2023-03-22T11:42:21.278Z,20.69
2023-03-22T11:44:48.010Z,20.69
2023-03-22T11:47:14.466Z,20.69
2023-03-22T11:49:46.384Z,20.70
2023-03-22T11:52:16.609Z,20.70
2023-03-22T11:54:44.284Z,20.70
2023-03-22T11:57:14.031Z,20.70
2023-03-22T11:59:46.782Z,20.70
2023-03-22T12:02:25.426Z,20.69
2023-03-22T12:04:57.388Z,20.70
2023-03-22T12:07:25.563Z,20.71
2023-03-22T12:09:57.517Z,20.72
2023-03-22T12:12:27.218Z,20.71
2023-03-22T12:15:02.500Z,20.71
2023-03-22T12:17:32.256Z,20.72
2023-03-22T12:20:16.101Z,20.72
2023-03-22T12:22:45.629Z,20.72
2023-03-22T12:25:17.584Z,20.73
2023-03-22T12:27:47.491Z,20.73
2023-03-22T12:30:20.151Z,20.73
2023-03-22T12:32:56.617Z,20.75
2023-03-22T12:35:27.214Z,20.75
2023-03-22T12:37:55.826Z,20.75
2023-03-22T12:40:34.393Z,20.76
2023-03-22T12:43:15.365Z,20.76
2023-03-22T12:45:44.173Z,20.76
2023-03-22T12:48:22.846Z,20.77
2023-03-22T12:50:56.209Z,20.77
2023-03-22T12:53:26.784Z,20.77
2023-03-22T12:55:53.450Z,20.76
2023-03-22T12:58:21.226Z,20.76
2023-03-22T13:01:20.034Z,20.76
2023-03-22T13:03:48.278Z,20.76
2023-03-22T13:06:33.612Z,20.75
2023-03-22T13:09:03.881Z,20.77
2023-03-22T13:11:30.418Z,20.76
2023-03-22T13:13:56.788Z,20.77
2023-03-22T13:16:24.562Z,20.75
2023-03-22T13:18:51.288Z,20.74
2023-03-22T13:21:17.822Z,20.75
2023-03-22T13:24:04.692Z,20.76
2023-03-22T13:26:47.326Z,20.76
2023-03-22T13:29:19.964Z,20.75
2023-03-22T13:32:06.719Z,20.75
2023-03-22T13:34:37.645Z,20.75
2023-03-22T13:37:08.612Z,20.76
2023-03-22T13:39:36.074Z,20.75
2023-03-22T13:42:22.821Z,20.75
2023-03-22T13:45:02.454Z,20.75
2023-03-22T13:47:36.676Z,20.75
2023-03-22T13:50:07.575Z,20.74
2023-03-22T13:52:36.030Z,20.75
2023-03-22T13:55:02.848Z,20.74
2023-03-22T13:57:59.019Z,20.75
2023-03-22T14:00:31.630Z,20.75
2023-03-22T14:03:01.881Z,20.71
2023-03-22T14:05:30.258Z,20.74
2023-03-22T14:07:58.163Z,20.74
2023-03-22T14:10:44.792Z,20.74
2023-03-22T14:13:29.611Z,20.73
2023-03-22T14:15:59.003Z,20.73
2023-03-22T14:18:29.905Z,20.73
2023-03-22T14:21:07.359Z,20.74
